createdAt,value
2022-09-09T00:02:21.570Z,100813.09
2022-09-09T00:05:47.754Z,100806.97
2022-09-09T00:09:00.600Z,100807.81
2022-09-09T00:12:13.495Z,100812.53
2022-09-09T00:15:26.618Z,100821.09
2022-09-09T00:18:44.144Z,100813.38
2022-09-09T00:22:00.550Z,100816.97
2022-09-09T00:25:20.329Z,100811.53
2022-09-09T00:28:28.370Z,100801.91
2022-09-09T00:31:33.885Z,100804.59
2022-09-09T00:34:49.619Z,100801.09
2022-09-09T00:38:01.826Z,100806.53
2022-09-09T00:41:20.029Z,100799.31
2022-09-09T00:44:37.821Z,100802.38
2022-09-09T00:47:51.140Z,100803.50
2022-09-09T00:51:07.682Z,100809.50
2022-09-09T00:54:28.207Z,100798.44
2022-09-09T00:57:36.787Z,100806.53
2022-09-09T01:00:54.421Z,100800.41
2022-09-09T01:04:02.476Z,100799.19
2022-09-09T01:07:19.246Z,100796.16
2022-09-09T01:10:50.823Z,100799.50
2022-09-09T01:14:26.699Z,100796.22
2022-09-09T01:17:55.510Z,100794.00
2022-09-09T01:21:16.357Z,100789.28
2022-09-09T01:24:46.333Z,100792.50
2022-09-09T01:28:20.763Z,100792.94
2022-09-09T01:31:32.930Z,100790.41
2022-09-09T01:34:42.843Z,100790.41
2022-09-09T01:37:48.039Z,100788.91
2022-09-09T01:40:54.975Z,100788.50
2022-09-09T01:44:05.341Z,100788.19
2022-09-09T01:47:12.934Z,100779.31
2022-09-09T01:50:36.841Z,100776.97
2022-09-09T01:53:44.213Z,100785.22
2022-09-09T01:56:56.869Z,100782.75
2022-09-09T02:00:15.503Z,100775.84
2022-09-09T02:03:28.364Z,100779.28
2022-09-09T02:06:41.661Z,100776.47
2022-09-09T02:10:21.508Z,100771.03
2022-09-09T02:13:40.259Z,100775.75
2022-09-09T02:16:54.929Z,100781.69
2022-09-09T02:20:11.679Z,100780.97
2022-09-09T02:23:37.443Z,100778.88
2022-09-09T02:26:51.011Z,100779.19
2022-09-09T02:30:01.889Z,100778.47
2022-09-09T02:33:18.677Z,100776.75
2022-09-09T02:36:32.236Z,100780.69
2022-09-09T02:39:37.647Z,100777.19
2022-09-09T02:42:49.211Z,100778.56
2022-09-09T02:46:36.462Z,100778.00
2022-09-09T02:50:12.705Z,100772.81
2022-09-09T02:53:23.995Z,100772.22
2022-09-09T02:56:37.001Z,100779.97
2022-09-09T02:59:45.403Z,100780.88
2022-09-09T03:02:51.027Z,100772.66
2022-09-09T03:05:57.323Z,100776.56
2022-09-09T03:09:04.076Z,100771.25
2022-09-09T03:12:09.695Z,100773.25
2022-09-09T03:15:16.012Z,100773.94
2022-09-09T03:18:21.766Z,100760.97
2022-09-09T03:21:31.123Z,100765.19
2022-09-09T03:24:36.440Z,100748.22
2022-09-09T03:27:44.160Z,100756.56
2022-09-09T03:30:51.170Z,100749.81
2022-09-09T03:33:59.483Z,100752.25
2022-09-09T03:37:08.347Z,100746.13
2022-09-09T03:40:15.467Z,100741.38
2022-09-09T03:43:25.426Z,100741.22
2022-09-09T03:46:33.281Z,100742.47
2022-09-09T03:49:39.103Z,100741.00
2022-09-09T03:52:45.499Z,100740.28
2022-09-09T03:56:01.114Z,100740.28
2022-09-09T03:59:10.122Z,100738.91
2022-09-09T04:02:15.560Z,100737.13
2022-09-09T04:05:21.560Z,100740.19
2022-09-09T04:08:28.224Z,100746.44
2022-09-09T04:11:35.444Z,100746.25
2022-09-09T04:14:41.120Z,100748.16
2022-09-09T04:17:46.957Z,100738.94
2022-09-09T04:20:54.360Z,100735.38
2022-09-09T04:24:03.167Z,100731.69
2022-09-09T04:27:08.708Z,100727.59
2022-09-09T04:30:15.629Z,100727.50
2022-09-09T04:33:22.277Z,100726.88
2022-09-09T04:36:29.628Z,100720.69
2022-09-09T04:39:39.314Z,100723.75
2022-09-09T04:42:46.162Z,100730.28
2022-09-09T04:45:54.532Z,100731.91
2022-09-09T04:49:03.486Z,100732.91
2022-09-09T04:52:10.947Z,100730.50
2022-09-09T04:55:17.080Z,100727.41
2022-09-09T04:58:24.920Z,100733.59
2022-09-09T05:01:30.448Z,100727.91
2022-09-09T05:04:41.123Z,100724.59
2022-09-09T05:07:47.364Z,100720.97
2022-09-09T05:10:53.935Z,100723.13
2022-09-09T05:13:59.822Z,100734.06
2022-09-09T05:17:07.456Z,100735.09
2022-09-09T05:20:17.487Z,100743.84
2022-09-09T05:23:24.089Z,100751.25
2022-09-09T05:26:30.841Z,100749.53
2022-09-09T05:29:37.195Z,100752.94
2022-09-09T05:32:44.668Z,100768.13
2022-09-09T05:36:07.544Z,100760.38
2022-09-09T05:39:13.891Z,100773.84
2022-09-09T05:42:20.317Z,100782.22
2022-09-09T05:45:25.642Z,100778.97
2022-09-09T05:48:36.099Z,100791.44
2022-09-09T05:51:41.637Z,100791.00
2022-09-09T05:54:50.057Z,100795.97
2022-09-09T05:57:55.161Z,100794.50
2022-09-09T06:01:09.057Z,100799.13
2022-09-09T06:04:14.639Z,100803.88
2022-09-09T06:07:20.177Z,100804.00
2022-09-09T06:10:26.252Z,100810.94
2022-09-09T06:13:33.025Z,100807.22
2022-09-09T06:16:43.529Z,100803.25
2022-09-09T06:20:01.557Z,100804.19
2022-09-09T06:23:09.522Z,100796.22
2022-09-09T06:26:31.755Z,100790.84
2022-09-09T06:29:39.666Z,100791.56
2022-09-09T06:32:47.075Z,100793.91
2022-09-09T06:35:54.787Z,100789.63
2022-09-09T06:39:02.698Z,100797.84
2022-09-09T06:42:10.153Z,100795.13
2022-09-09T06:45:27.501Z,100801.09
2022-09-09T06:48:38.200Z,100799.53
2022-09-09T06:51:44.999Z,100789.78
2022-09-09T06:54:52.569Z,100791.84
2022-09-09T06:57:58.239Z,100791.84
2022-09-09T07:01:08.217Z,100792.03
2022-09-09T07:04:15.313Z,100798.44
2022-09-09T07:07:23.034Z,100796.34
2022-09-09T07:10:28.755Z,100784.19
2022-09-09T07:13:35.930Z,100787.41
2022-09-09T07:16:46.782Z,100781.78
2022-09-09T07:19:54.438Z,100788.50
2022-09-09T07:23:00.669Z,100789.13
2022-09-09T07:26:12.024Z,100779.38
2022-09-09T07:29:20.779Z,100772.69
2022-09-09T07:32:31.744Z,100772.66
2022-09-09T07:35:38.562Z,100769.25
2022-09-09T07:38:47.605Z,100767.66
2022-09-09T07:41:53.304Z,100770.22
2022-09-09T07:45:01.271Z,100766.31
2022-09-09T07:48:08.184Z,100760.56
2022-09-09T07:51:19.821Z,100757.59
2022-09-09T07:54:27.418Z,100761.13
2022-09-09T07:57:33.367Z,100762.03
2022-09-09T08:00:44.858Z,100775.69
2022-09-09T08:04:00.891Z,100768.78
2022-09-09T08:07:07.362Z,100777.44
2022-09-09T08:10:20.545Z,100775.63
2022-09-09T08:13:28.618Z,100783.88
2022-09-09T08:16:37.989Z,100785.47
2022-09-09T08:19:46.045Z,100790.31
2022-09-09T08:22:59.468Z,100788.09
2022-09-09T08:26:11.948Z,100796.94
2022-09-09T08:29:18.822Z,100797.78
2022-09-09T08:32:27.587Z,100793.03
2022-09-09T08:35:33.898Z,100805.78
2022-09-09T08:38:41.051Z,100796.53
2022-09-09T08:41:53.164Z,100805.28
2022-09-09T08:45:21.241Z,100799.72
2022-09-09T08:48:57.924Z,100795.03
2022-09-09T08:52:11.936Z,100795.59
2022-09-09T08:55:36.740Z,100796.16
2022-09-09T08:58:57.872Z,100786.06
2022-09-09T09:02:17.970Z,100787.91
2022-09-09T09:05:54.030Z,100790.69
2022-09-09T09:09:33.238Z,100796.69
2022-09-09T09:12:45.073Z,100796.53
2022-09-09T09:15:59.806Z,100788.69
2022-09-09T09:19:11.493Z,100788.53
2022-09-09T09:22:23.848Z,100789.78
2022-09-09T09:25:41.053Z,100792.22
2022-09-09T09:28:47.125Z,100796.88
2022-09-09T09:32:03.493Z,100790.63
2022-09-09T09:35:14.582Z,100790.78
2022-09-09T09:41:51.073Z,100777.53
2022-09-09T09:44:56.727Z,100788.81
2022-09-09T09:48:08.066Z,100785.28
2022-09-09T09:51:20.285Z,100786.34
2022-09-09T09:54:45.096Z,100786.91
2022-09-09T09:57:51.227Z,100792.00
2022-09-09T10:00:56.797Z,100794.22
2022-09-09T10:04:20.249Z,100779.13
2022-09-09T10:07:27.574Z,100790.97
2022-09-09T10:10:44.971Z,100823.28
2022-09-09T10:14:19.396Z,100835.63
2022-09-09T10:17:33.600Z,100815.41
2022-09-09T10:21:17.835Z,100798.28
2022-09-09T10:24:46.086Z,100812.03
2022-09-09T10:28:06.076Z,100818.09
2022-09-09T10:31:40.518Z,100827.19
2022-09-09T10:34:48.963Z,100827.97
2022-09-09T10:38:15.372Z,100824.44
2022-09-09T10:41:38.238Z,100818.63
2022-09-09T10:44:58.899Z,100808.00
2022-09-09T10:48:27.782Z,100808.97
2022-09-09T10:51:58.140Z,100814.97
2022-09-09T10:55:21.851Z,100814.31
2022-09-09T10:58:44.067Z,100813.47
2022-09-09T11:02:09.708Z,100822.16
2022-09-09T11:05:35.263Z,100838.88
2022-09-09T11:08:41.170Z,100837.72
2022-09-09T11:11:57.425Z,100824.94
2022-09-09T11:15:14.009Z,100819.41
2022-09-09T11:18:25.547Z,100817.59
2022-09-09T11:21:38.432Z,100816.78
2022-09-09T11:25:27.929Z,100809.50
2022-09-09T11:29:14.967Z,100813.97
2022-09-09T11:32:34.364Z,100804.53
2022-09-09T11:36:04.542Z,100804.31
2022-09-09T11:39:24.752Z,100793.94
2022-09-09T11:42:30.465Z,100796.53
2022-09-09T11:45:38.254Z,100787.97
2022-09-09T11:48:47.083Z,100786.53
2022-09-09T11:51:51.979Z,100794.22
2022-09-09T11:54:57.999Z,100785.69
2022-09-09T11:58:17.379Z,100784.75
2022-09-09T12:01:46.010Z,100779.94
2022-09-09T12:04:59.298Z,100778.72
2022-09-09T12:08:06.172Z,100774.28
2022-09-09T12:11:12.423Z,100776.06
2022-09-09T12:14:24.163Z,100772.88
2022-09-09T12:17:32.868Z,100775.00
2022-09-09T12:20:39.911Z,100782.81
2022-09-09T12:23:57.287Z,100766.19
2022-09-09T12:27:23.355Z,100765.41
2022-09-09T12:30:42.137Z,100763.16
2022-09-09T12:33:48.679Z,100751.59
2022-09-09T12:37:04.358Z,100759.50
2022-09-09T12:40:32.806Z,100752.28
2022-09-09T12:43:38.479Z,100755.53
2022-09-09T12:46:47.933Z,100758.44
2022-09-09T12:49:53.799Z,100751.50
2022-09-09T12:53:17.752Z,100735.78
2022-09-09T12:56:27.985Z,100731.50
2022-09-09T12:59:39.017Z,100738.47
2022-09-09T13:02:56.227Z,100739.97
2022-09-09T13:06:29.052Z,100742.00
2022-09-09T13:09:34.781Z,100733.81
2022-09-09T13:12:43.115Z,100736.53
2022-09-09T13:15:57.728Z,100736.44
2022-09-09T13:19:10.317Z,100739.06
2022-09-09T13:22:36.851Z,100736.97
2022-09-09T13:25:44.557Z,100738.91
2022-09-09T13:28:50.728Z,100730.50
2022-09-09T13:32:09.057Z,100732.34
2022-09-09T13:35:25.586Z,100728.53
2022-09-09T13:38:42.086Z,100739.34
2022-09-09T13:41:51.510Z,100736.09
2022-09-09T13:44:59.251Z,100731.03
2022-09-09T13:48:11.761Z,100725.63
2022-09-09T13:51:38.734Z,100726.00
2022-09-09T13:54:49.173Z,100720.41
2022-09-09T13:57:56.691Z,100713.06
2022-09-09T14:01:02.487Z,100719.78
2022-09-09T14:04:08.698Z,100706.69
2022-09-09T14:07:16.884Z,100708.69
2022-09-09T14:10:23.636Z,100710.09
2022-09-09T14:13:28.941Z,100695.03
2022-09-09T14:16:34.314Z,100695.97
2022-09-09T14:19:39.534Z,100688.78
2022-09-09T14:22:45.490Z,100698.47
2022-09-09T14:25:51.295Z,100705.09
2022-09-09T14:28:56.581Z,100708.97
2022-09-09T14:32:06.586Z,100711.38
2022-09-09T14:35:15.481Z,100716.03
2022-09-09T14:38:20.909Z,100713.41
2022-09-09T14:41:26.579Z,100716.69
2022-09-09T14:44:31.793Z,100720.91
2022-09-09T14:47:37.642Z,100718.63
2022-09-09T14:50:42.862Z,100722.97
2022-09-09T14:53:48.443Z,100718.88
2022-09-09T14:56:53.863Z,100725.81
2022-09-09T14:59:59.684Z,100715.09
2022-09-09T15:03:05.226Z,100708.84
2022-09-09T15:06:15.333Z,100721.25
2022-09-09T15:09:21.229Z,100709.88
2022-09-09T15:12:26.426Z,100707.59
2022-09-09T15:15:31.478Z,100707.03
2022-09-09T15:18:37.765Z,100704.41
2022-09-09T15:21:42.840Z,100705.19
2022-09-09T15:24:48.565Z,100705.44
2022-09-09T15:27:54.040Z,100711.78
2022-09-09T15:31:01.079Z,100707.13
2022-09-09T15:34:08.714Z,100708.16
2022-09-09T15:37:14.383Z,100708.06
2022-09-09T15:40:20.091Z,100712.38
2022-09-09T15:43:26.444Z,100713.41
2022-09-09T15:46:44.858Z,100711.59
2022-09-09T15:49:49.945Z,100716.47
2022-09-09T15:52:55.213Z,100710.81
2022-09-09T15:56:01.139Z,100711.13
2022-09-09T15:59:06.882Z,100701.47
2022-09-09T16:02:12.831Z,100701.34
2022-09-09T16:05:18.112Z,100699.06
2022-09-09T16:08:23.262Z,100699.63
2022-09-09T16:11:32.547Z,100699.06
2022-09-09T16:14:38.056Z,100702.59
2022-09-09T16:17:43.798Z,100695.19
2022-09-09T16:20:56.472Z,100696.53
2022-09-09T16:24:04.290Z,100701.69
2022-09-09T16:27:09.427Z,100709.53
2022-09-09T16:30:15.004Z,100702.56
2022-09-09T16:33:20.355Z,100704.84
2022-09-09T16:36:28.152Z,100707.41
2022-09-09T16:39:33.328Z,100702.88
2022-09-09T16:42:39.659Z,100704.22
2022-09-09T16:45:46.569Z,100701.25
2022-09-09T16:48:53.219Z,100712.72
2022-09-09T16:52:00.241Z,100713.97
2022-09-09T16:55:06.450Z,100719.03
2022-09-09T16:58:12.918Z,100721.16
2022-09-09T17:01:18.384Z,100718.50
2022-09-09T17:04:27.845Z,100713.31
2022-09-09T17:07:33.700Z,100716.50
2022-09-09T17:10:43.822Z,100719.97
2022-09-09T17:13:49.609Z,100717.25
2022-09-09T17:16:55.112Z,100725.34
2022-09-09T17:20:00.719Z,100718.66
2022-09-09T17:23:07.696Z,100721.25
2022-09-09T17:26:16.336Z,100721.25
2022-09-09T17:29:21.599Z,100722.34
2022-09-09T17:32:26.775Z,100725.53
2022-09-09T17:35:32.714Z,100737.72
2022-09-09T17:38:38.914Z,100740.22
2022-09-09T17:41:44.243Z,100744.25
2022-09-09T17:44:49.548Z,100746.19
2022-09-09T17:47:56.542Z,100748.13
2022-09-09T17:51:02.139Z,100753.44
2022-09-09T17:54:17.858Z,100759.28
2022-09-09T17:57:23.993Z,100753.34
2022-09-09T18:00:30.620Z,100754.69
2022-09-09T18:03:43.845Z,100759.84
2022-09-09T18:06:51.975Z,100758.69
2022-09-09T18:09:57.409Z,100766.38
2022-09-09T18:13:03.396Z,100779.38
2022-09-09T18:16:10.631Z,100780.66
2022-09-09T18:19:19.645Z,100782.09
2022-09-09T18:22:24.956Z,100781.44
2022-09-09T18:25:30.474Z,100785.78
2022-09-09T18:28:38.138Z,100786.28
2022-09-09T18:31:43.423Z,100786.09
2022-09-09T18:34:55.408Z,100789.94
2022-09-09T18:38:00.725Z,100792.00
2022-09-09T18:41:23.402Z,100798.25
2022-09-09T18:44:32.233Z,100799.28
2022-09-09T18:47:38.185Z,100805.44
2022-09-09T18:50:43.735Z,100812.09
2022-09-09T18:53:55.355Z,100800.88
2022-09-09T18:57:01.659Z,100803.09
2022-09-09T19:00:09.155Z,100812.81
2022-09-09T19:03:14.517Z,100824.31
2022-09-09T19:06:24.150Z,100821.13
2022-09-09T19:09:34.115Z,100813.59
2022-09-09T19:12:41.579Z,100822.53
2022-09-09T19:15:46.981Z,100827.78
2022-09-09T19:18:52.932Z,100826.19
2022-09-09T19:21:59.975Z,100826.53
2022-09-09T19:25:07.312Z,100829.53
2022-09-09T19:28:14.230Z,100828.91
2022-09-09T19:31:21.674Z,100830.47
2022-09-09T19:34:27.366Z,100834.66
2022-09-09T19:37:33.416Z,100825.81
2022-09-09T19:40:40.232Z,100827.34
2022-09-09T19:43:45.881Z,100836.22
2022-09-09T19:46:50.872Z,100836.25
2022-09-09T19:49:56.219Z,100835.13
2022-09-09T19:53:01.698Z,100829.94
2022-09-09T19:56:09.799Z,100841.53
2022-09-09T19:59:15.821Z,100848.81
2022-09-09T20:02:21.997Z,100853.13
2022-09-09T20:05:27.655Z,100858.56
2022-09-09T20:08:34.126Z,100849.69
2022-09-09T20:11:39.880Z,100852.78
2022-09-09T20:14:45.381Z,100857.78
2022-09-09T20:17:50.837Z,100849.88
2022-09-09T20:21:09.993Z,100859.19
2022-09-09T20:24:19.223Z,100852.47
2022-09-09T20:27:24.929Z,100855.13
2022-09-09T20:30:31.356Z,100867.50
2022-09-09T20:33:36.847Z,100870.69
2022-09-09T20:36:43.793Z,100868.91
2022-09-09T20:39:49.791Z,100863.91
2022-09-09T20:42:55.166Z,100866.31
2022-09-09T20:46:04.741Z,100865.44
2022-09-09T20:49:12.151Z,100859.59
2022-09-09T20:52:20.734Z,100859.81
2022-09-09T20:55:26.868Z,100853.47
2022-09-09T20:58:33.612Z,100852.69
2022-09-09T21:01:40.296Z,100842.66
2022-09-09T21:04:47.653Z,100849.22
2022-09-09T21:07:53.579Z,100843.34
2022-09-09T21:10:59.902Z,100845.72
2022-09-09T21:14:06.467Z,100844.13
2022-09-09T21:17:12.237Z,100842.75
2022-09-09T21:20:17.469Z,100851.09
2022-09-09T21:23:24.103Z,100863.25
2022-09-09T21:26:29.302Z,100857.63
2022-09-09T21:29:34.507Z,100865.84
2022-09-09T21:32:39.879Z,100870.69
2022-09-09T21:35:45.478Z,100873.31
2022-09-09T21:38:51.597Z,100876.50
2022-09-09T21:41:57.158Z,100869.91
2022-09-09T21:45:02.188Z,100870.09
2022-09-09T21:48:09.513Z,100876.22
2022-09-09T21:51:17.583Z,100880.34
2022-09-09T21:54:23.069Z,100875.00
2022-09-09T21:57:28.474Z,100882.97
2022-09-09T22:00:33.814Z,100876.59
2022-09-09T22:03:39.699Z,100880.34
2022-09-09T22:06:44.927Z,100893.75
2022-09-09T22:09:50.574Z,100894.06
2022-09-09T22:12:55.665Z,100898.63
2022-09-09T22:16:04.364Z,100905.34
2022-09-09T22:19:09.978Z,100912.28
2022-09-09T22:22:16.050Z,100906.84
2022-09-09T22:25:21.090Z,100901.94
2022-09-09T22:28:26.572Z,100898.50
2022-09-09T22:31:33.381Z,100890.66
2022-09-09T22:34:40.552Z,100879.41
2022-09-09T22:37:45.849Z,100878.19
2022-09-09T22:40:52.299Z,100865.28
2022-09-09T22:43:59.572Z,100867.50
2022-09-09T22:47:05.389Z,100863.19
2022-09-09T22:50:12.367Z,100876.47
2022-09-09T22:53:21.576Z,100877.53
2022-09-09T22:56:27.049Z,100887.91
2022-09-09T22:59:32.196Z,100902.22
2022-09-09T23:02:40.800Z,100898.00
2022-09-09T23:05:55.384Z,100900.84
2022-09-09T23:09:03.643Z,100901.31
2022-09-09T23:12:09.847Z,100899.81
2022-09-09T23:15:15.786Z,100901.41
2022-09-09T23:18:24.489Z,100889.97
2022-09-09T23:21:31.429Z,100891.88
2022-09-09T23:24:37.023Z,100890.06
2022-09-09T23:27:42.701Z,100892.69
2022-09-09T23:30:48.352Z,100908.22
2022-09-09T23:33:54.829Z,100912.16
2022-09-09T23:37:00.344Z,100909.31
2022-09-09T23:40:06.059Z,100910.72
2022-09-09T23:43:12.177Z,100895.66
2022-09-09T23:46:21.209Z,100901.19
2022-09-09T23:49:26.982Z,100904.31
2022-09-09T23:52:32.650Z,100906.34
2022-09-09T23:55:40.183Z,100906.22
2022-09-09T23:58:45.948Z,100902.81
